sensor_id;sensor_type;location;lat;lon;timestamp;P1;durP1;ratioP1;P2;durP2;ratioP2
13048;SDS011;6591;51.446;5.404;2023-04-15T00:01:05;5.50;;;2.50;;
13048;SDS011;6591;51.446;5.404;2023-04-15T00:03:32;3.50;;;2.70;;
13048;SDS011;6591;51.446;5.404;2023-04-15T00:06:00;5.60;;;3.23;;
13048;SDS011;6591;51.446;5.404;2023-04-15T00:08:27;5.73;;;3.27;;
13048;SDS011;6591;51.446;5.404;2023-04-15T00:10:55;6.77;;;3.87;;
13048;SDS011;6591;51.446;5.404;2023-04-15T00:13:24;4.10;;;3.07;;
13048;SDS011;6591;51.446;5.404;2023-04-15T00:15:51;7.70;;;3.60;;
13048;SDS011;6591;51.446;5.404;2023-04-15T00:18:18;6.10;;;3.10;;
13048;SDS011;6591;51.446;5.404;2023-04-15T00:20:45;7.13;;;3.87;;
13048;SDS011;6591;51.446;5.404;2023-04-15T00:23:12;4.53;;;3.47;;
13048;SDS011;6591;51.446;5.404;2023-04-15T00:25:39;5.80;;;3.40;;
13048;SDS011;6591;51.446;5.404;2023-04-15T00:28:07;7.23;;;3.60;;
13048;SDS011;6591;51.446;5.404;2023-04-15T00:30:33;4.27;;;2.87;;
13048;SDS011;6591;51.446;5.404;2023-04-15T00:33:00;4.93;;;3.37;;
13048;SDS011;6591;51.446;5.404;2023-04-15T00:35:29;4.67;;;3.17;;
13048;SDS011;6591;51.446;5.404;2023-04-15T00:37:59;4.40;;;3.33;;
13048;SDS011;6591;51.446;5.404;2023-04-15T00:40:26;5.77;;;3.20;;
13048;SDS011;6591;51.446;5.404;2023-04-15T00:42:53;4.70;;;3.27;;
13048;SDS011;6591;51.446;5.404;2023-04-15T00:45:20;6.23;;;3.23;;
13048;SDS011;6591;51.446;5.404;2023-04-15T00:47:48;7.70;;;4.20;;
13048;SDS011;6591;51.446;5.404;2023-04-15T00:50:17;4.77;;;3.17;;
13048;SDS011;6591;51.446;5.404;2023-04-15T00:52:44;6.57;;;3.63;;
13048;SDS011;6591;51.446;5.404;2023-04-15T00:55:11;5.27;;;3.50;;
13048;SDS011;6591;51.446;5.404;2023-04-15T00:57:39;4.63;;;3.50;;
13048;SDS011;6591;51.446;5.404;2023-04-15T01:00:06;5.87;;;3.90;;
13048;SDS011;6591;51.446;5.404;2023-04-15T01:02:36;5.00;;;3.53;;
13048;SDS011;6591;51.446;5.404;2023-04-15T01:05:04;5.23;;;3.87;;
13048;SDS011;6591;51.446;5.404;2023-04-15T01:07:32;5.53;;;3.97;;
13048;SDS011;6591;51.446;5.404;2023-04-15T01:10:01;6.63;;;4.27;;
13048;SDS011;6591;51.446;5.404;2023-04-15T01:12:29;10.33;;;4.70;;
13048;SDS011;6591;51.446;5.404;2023-04-15T01:14:59;5.43;;;4.03;;
13048;SDS011;6591;51.446;5.404;2023-04-15T01:17:27;7.17;;;4.73;;
13048;SDS011;6591;51.446;5.404;2023-04-15T01:19:55;7.37;;;4.73;;
13048;SDS011;6591;51.446;5.404;2023-04-15T01:22:23;7.97;;;4.67;;
13048;SDS011;6591;51.446;5.404;2023-04-15T01:24:54;7.00;;;4.90;;
13048;SDS011;6591;51.446;5.404;2023-04-15T01:27:29;10.03;;;4.90;;
13048;SDS011;6591;51.446;5.404;2023-04-15T01:29:56;8.27;;;4.97;;
13048;SDS011;6591;51.446;5.404;2023-04-15T01:32:23;7.97;;;5.03;;
13048;SDS011;6591;51.446;5.404;2023-04-15T01:34:50;9.50;;;5.70;;
13048;SDS011;6591;51.446;5.404;2023-04-15T01:37:21;9.23;;;5.10;;
13048;SDS011;6591;51.446;5.404;2023-04-15T01:39:49;7.40;;;5.40;;
13048;SDS011;6591;51.446;5.404;2023-04-15T01:42:16;8.53;;;5.00;;
13048;SDS011;6591;51.446;5.404;2023-04-15T01:44:43;6.57;;;4.50;;
13048;SDS011;6591;51.446;5.404;2023-04-15T01:47:10;8.87;;;4.87;;
13048;SDS011;6591;51.446;5.404;2023-04-15T01:49:38;6.63;;;4.30;;
13048;SDS011;6591;51.446;5.404;2023-04-15T01:52:05;6.57;;;4.40;;
13048;SDS011;6591;51.446;5.404;2023-04-15T01:54:33;7.70;;;4.57;;
13048;SDS011;6591;51.446;5.404;2023-04-15T01:57:00;6.80;;;4.63;;
13048;SDS011;6591;51.446;5.404;2023-04-15T01:59:27;8.13;;;4.70;;
13048;SDS011;6591;51.446;5.404;2023-04-15T02:01:54;10.30;;;5.20;;
13048;SDS011;6591;51.446;5.404;2023-04-15T02:04:22;6.80;;;4.90;;
13048;SDS011;6591;51.446;5.404;2023-04-15T02:06:50;7.43;;;4.77;;
13048;SDS011;6591;51.446;5.404;2023-04-15T02:09:20;7.27;;;4.33;;
13048;SDS011;6591;51.446;5.404;2023-04-15T02:11:47;6.43;;;4.53;;
13048;SDS011;6591;51.446;5.404;2023-04-15T02:14:14;6.03;;;4.23;;
13048;SDS011;6591;51.446;5.404;2023-04-15T02:16:41;5.60;;;4.43;;
13048;SDS011;6591;51.446;5.404;2023-04-15T02:19:08;6.80;;;4.43;;
13048;SDS011;6591;51.446;5.404;2023-04-15T02:21:36;7.07;;;4.80;;
13048;SDS011;6591;51.446;5.404;2023-04-15T02:24:03;9.80;;;5.00;;
13048;SDS011;6591;51.446;5.404;2023-04-15T02:26:31;7.53;;;5.13;;
13048;SDS011;6591;51.446;5.404;2023-04-15T02:28:58;8.67;;;4.57;;
13048;SDS011;6591;51.446;5.404;2023-04-15T02:31:26;7.83;;;5.50;;
13048;SDS011;6591;51.446;5.404;2023-04-15T02:33:53;9.63;;;5.97;;
13048;SDS011;6591;51.446;5.404;2023-04-15T02:36:20;7.47;;;5.17;;
13048;SDS011;6591;51.446;5.404;2023-04-15T02:38:49;7.90;;;5.40;;
13048;SDS011;6591;51.446;5.404;2023-04-15T02:41:17;9.43;;;5.50;;
13048;SDS011;6591;51.446;5.404;2023-04-15T02:43:45;9.03;;;5.30;;
13048;SDS011;6591;51.446;5.404;2023-04-15T02:46:13;6.73;;;5.53;;
13048;SDS011;6591;51.446;5.404;2023-04-15T02:48:40;8.90;;;5.20;;
13048;SDS011;6591;51.446;5.404;2023-04-15T02:51:11;8.70;;;6.03;;
13048;SDS011;6591;51.446;5.404;2023-04-15T02:53:45;8.83;;;5.73;;
13048;SDS011;6591;51.446;5.404;2023-04-15T02:56:14;6.27;;;5.13;;
13048;SDS011;6591;51.446;5.404;2023-04-15T02:58:43;7.47;;;5.67;;
13048;SDS011;6591;51.446;5.404;2023-04-15T03:01:11;9.10;;;5.57;;
13048;SDS011;6591;51.446;5.404;2023-04-15T03:03:39;7.20;;;5.30;;
13048;SDS011;6591;51.446;5.404;2023-04-15T03:06:06;8.23;;;5.87;;
13048;SDS011;6591;51.446;5.404;2023-04-15T03:08:34;7.53;;;5.53;;
13048;SDS011;6591;51.446;5.404;2023-04-15T03:11:02;7.90;;;5.30;;
13048;SDS011;6591;51.446;5.404;2023-04-15T03:13:31;7.17;;;6.13;;
13048;SDS011;6591;51.446;5.404;2023-04-15T03:16:05;9.87;;;5.80;;
13048;SDS011;6591;51.446;5.404;2023-04-15T03:18:32;10.10;;;5.93;;
13048;SDS011;6591;51.446;5.404;2023-04-15T03:21:01;7.10;;;5.63;;
13048;SDS011;6591;51.446;5.404;2023-04-15T03:23:33;8.17;;;5.70;;
13048;SDS011;6591;51.446;5.404;2023-04-15T03:26:01;7.60;;;5.60;;
13048;SDS011;6591;51.446;5.404;2023-04-15T03:28:30;8.27;;;6.10;;
13048;SDS011;6591;51.446;5.404;2023-04-15T03:30:59;7.70;;;6.40;;
13048;SDS011;6591;51.446;5.404;2023-04-15T03:33:26;9.50;;;6.60;;
13048;SDS011;6591;51.446;5.404;2023-04-15T03:35:53;8.73;;;6.70;;
13048;SDS011;6591;51.446;5.404;2023-04-15T03:38:20;9.77;;;6.20;;
13048;SDS011;6591;51.446;5.404;2023-04-15T03:40:47;6.87;;;5.90;;
13048;SDS011;6591;51.446;5.404;2023-04-15T03:43:14;6.53;;;5.73;;
13048;SDS011;6591;51.446;5.404;2023-04-15T03:45:41;6.97;;;6.10;;
13048;SDS011;6591;51.446;5.404;2023-04-15T03:48:08;7.70;;;5.87;;
13048;SDS011;6591;51.446;5.404;2023-04-15T03:50:42;9.00;;;6.23;;
13048;SDS011;6591;51.446;5.404;2023-04-15T03:53:09;9.47;;;6.07;;
13048;SDS011;6591;51.446;5.404;2023-04-15T03:55:36;10.10;;;6.23;;
13048;SDS011;6591;51.446;5.404;2023-04-15T03:58:03;9.63;;;5.93;;
13048;SDS011;6591;51.446;5.404;2023-04-15T04:00:30;9.13;;;6.43;;
13048;SDS011;6591;51.446;5.404;2023-04-15T04:02:57;7.63;;;5.47;;
13048;SDS011;6591;51.446;5.404;2023-04-15T04:05:25;8.40;;;5.80;;
13048;SDS011;6591;51.446;5.404;2023-04-15T04:07:52;8.13;;;6.37;;
13048;SDS011;6591;51.446;5.404;2023-04-15T04:10:19;8.57;;;6.30;;
13048;SDS011;6591;51.446;5.404;2023-04-15T04:12:46;7.50;;;6.57;;
13048;SDS011;6591;51.446;5.404;2023-04-15T04:15:13;7.77;;;6.33;;
13048;SDS011;6591;51.446;5.404;2023-04-15T04:17:39;8.27;;;6.37;;
13048;SDS011;6591;51.446;5.404;2023-04-15T04:20:07;8.90;;;6.23;;
13048;SDS011;6591;51.446;5.404;2023-04-15T04:22:38;8.10;;;6.30;;
13048;SDS011;6591;51.446;5.404;2023-04-15T04:25:07;8.83;;;6.63;;
13048;SDS011;6591;51.446;5.404;2023-04-15T04:27:37;10.70;;;7.40;;
13048;SDS011;6591;51.446;5.404;2023-04-15T04:30:04;8.33;;;7.13;;
13048;SDS011;6591;51.446;5.404;2023-04-15T04:32:33;10.30;;;7.57;;
13048;SDS011;6591;51.446;5.404;2023-04-15T04:35:00;9.43;;;6.97;;
13048;SDS011;6591;51.446;5.404;2023-04-15T04:37:27;8.90;;;6.90;;
13048;SDS011;6591;51.446;5.404;2023-04-15T04:39:54;8.47;;;6.87;;
13048;SDS011;6591;51.446;5.404;2023-04-15T04:42:21;8.73;;;6.60;;
13048;SDS011;6591;51.446;5.404;2023-04-15T04:44:48;7.30;;;6.50;;
13048;SDS011;6591;51.446;5.404;2023-04-15T04:47:15;9.67;;;6.53;;
13048;SDS011;6591;51.446;5.404;2023-04-15T04:49:42;6.90;;;6.07;;
13048;SDS011;6591;51.446;5.404;2023-04-15T04:52:09;10.07;;;6.70;;
13048;SDS011;6591;51.446;5.404;2023-04-15T04:54:37;8.23;;;6.20;;
13048;SDS011;6591;51.446;5.404;2023-04-15T04:57:03;8.30;;;7.40;;
13048;SDS011;6591;51.446;5.404;2023-04-15T04:59:33;9.53;;;7.10;;
13048;SDS011;6591;51.446;5.404;2023-04-15T05:02:00;7.80;;;7.00;;
13048;SDS011;6591;51.446;5.404;2023-04-15T05:04:27;9.60;;;7.00;;
13048;SDS011;6591;51.446;5.404;2023-04-15T05:06:54;8.37;;;6.90;;
13048;SDS011;6591;51.446;5.404;2023-04-15T05:09:21;9.23;;;7.27;;
13048;SDS011;6591;51.446;5.404;2023-04-15T05:11:48;9.63;;;7.30;;
13048;SDS011;6591;51.446;5.404;2023-04-15T05:14:15;7.53;;;6.73;;
13048;SDS011;6591;51.446;5.404;2023-04-15T05:16:42;7.43;;;6.23;;
13048;SDS011;6591;51.446;5.404;2023-04-15T05:19:09;7.30;;;6.60;;
13048;SDS011;6591;51.446;5.404;2023-04-15T05:21:36;9.23;;;7.13;;
13048;SDS011;6591;51.446;5.404;2023-04-15T05:24:04;9.20;;;6.90;;
13048;SDS011;6591;51.446;5.404;2023-04-15T05:26:32;8.13;;;6.90;;
13048;SDS011;6591;51.446;5.404;2023-04-15T05:28:59;9.27;;;7.23;;
13048;SDS011;6591;51.446;5.404;2023-04-15T05:31:26;10.93;;;7.90;;
13048;SDS011;6591;51.446;5.404;2023-04-15T05:33:53;9.87;;;7.93;;
13048;SDS011;6591;51.446;5.404;2023-04-15T05:36:20;10.33;;;7.63;;
13048;SDS011;6591;51.446;5.404;2023-04-15T05:38:47;8.53;;;7.37;;
13048;SDS011;6591;51.446;5.404;2023-04-15T05:41:14;10.70;;;8.27;;
13048;SDS011;6591;51.446;5.404;2023-04-15T05:43:45;10.07;;;7.47;;
13048;SDS011;6591;51.446;5.404;2023-04-15T05:46:13;8.77;;;7.43;;
13048;SDS011;6591;51.446;5.404;2023-04-15T05:48:41;9.80;;;7.70;;
13048;SDS011;6591;51.446;5.404;2023-04-15T05:51:08;8.23;;;7.43;;
13048;SDS011;6591;51.446;5.404;2023-04-15T05:53:35;9.30;;;7.60;;
13048;SDS011;6591;51.446;5.404;2023-04-15T05:56:02;9.93;;;8.47;;
13048;SDS011;6591;51.446;5.404;2023-04-15T05:58:30;10.63;;;8.27;;
13048;SDS011;6591;51.446;5.404;2023-04-15T06:00:57;8.90;;;7.80;;
13048;SDS011;6591;51.446;5.404;2023-04-15T06:03:24;8.53;;;7.53;;
13048;SDS011;6591;51.446;5.404;2023-04-15T06:05:51;8.40;;;6.90;;
13048;SDS011;6591;51.446;5.404;2023-04-15T06:08:19;8.57;;;7.47;;
13048;SDS011;6591;51.446;5.404;2023-04-15T06:10:47;12.63;;;7.27;;
13048;SDS011;6591;51.446;5.404;2023-04-15T06:13:14;10.93;;;7.30;;
13048;SDS011;6591;51.446;5.404;2023-04-15T06:15:43;7.57;;;6.73;;
13048;SDS011;6591;51.446;5.404;2023-04-15T06:18:10;10.10;;;8.07;;
13048;SDS011;6591;51.446;5.404;2023-04-15T06:20:37;8.53;;;7.40;;
13048;SDS011;6591;51.446;5.404;2023-04-15T06:23:04;8.93;;;7.63;;
13048;SDS011;6591;51.446;5.404;2023-04-15T06:25:31;8.77;;;7.60;;
13048;SDS011;6591;51.446;5.404;2023-04-15T06:27:58;12.13;;;7.77;;
13048;SDS011;6591;51.446;5.404;2023-04-15T06:30:25;7.87;;;7.03;;
13048;SDS011;6591;51.446;5.404;2023-04-15T06:32:52;9.10;;;7.87;;
13048;SDS011;6591;51.446;5.404;2023-04-15T06:35:21;8.43;;;6.83;;
13048;SDS011;6591;51.446;5.404;2023-04-15T06:37:48;8.83;;;7.40;;
13048;SDS011;6591;51.446;5.404;2023-04-15T06:40:15;8.47;;;7.00;;
13048;SDS011;6591;51.446;5.404;2023-04-15T06:42:43;11.10;;;7.43;;
13048;SDS011;6591;51.446;5.404;2023-04-15T06:45:10;9.40;;;7.20;;
13048;SDS011;6591;51.446;5.404;2023-04-15T06:47:37;8.37;;;6.90;;
13048;SDS011;6591;51.446;5.404;2023-04-15T06:50:04;8.57;;;7.63;;
13048;SDS011;6591;51.446;5.404;2023-04-15T06:52:32;8.57;;;6.90;;
13048;SDS011;6591;51.446;5.404;2023-04-15T06:54:59;8.47;;;7.07;;
13048;SDS011;6591;51.446;5.404;2023-04-15T06:57:27;7.77;;;6.67;;
13048;SDS011;6591;51.446;5.404;2023-04-15T06:59:54;7.77;;;6.57;;
13048;SDS011;6591;51.446;5.404;2023-04-15T07:02:21;7.60;;;6.90;;
13048;SDS011;6591;51.446;5.404;2023-04-15T07:04:49;8.37;;;7.00;;
13048;SDS011;6591;51.446;5.404;2023-04-15T07:07:16;7.13;;;6.43;;
13048;SDS011;6591;51.446;5.404;2023-04-15T07:09:43;9.17;;;6.97;;
13048;SDS011;6591;51.446;5.404;2023-04-15T07:12:10;7.90;;;6.83;;
13048;SDS011;6591;51.446;5.404;2023-04-15T07:14:37;9.40;;;7.17;;
13048;SDS011;6591;51.446;5.404;2023-04-15T07:17:04;9.40;;;6.93;;
13048;SDS011;6591;51.446;5.404;2023-04-15T07:19:32;7.97;;;6.57;;
13048;SDS011;6591;51.446;5.404;2023-04-15T07:21:59;7.70;;;6.00;;
13048;SDS011;6591;51.446;5.404;2023-04-15T07:24:26;6.80;;;6.10;;
13048;SDS011;6591;51.446;5.404;2023-04-15T07:26:53;7.70;;;6.30;;
13048;SDS011;6591;51.446;5.404;2023-04-15T07:29:25;8.30;;;7.03;;
13048;SDS011;6591;51.446;5.404;2023-04-15T07:31:52;8.93;;;6.80;;
13048;SDS011;6591;51.446;5.404;2023-04-15T07:34:19;7.57;;;6.17;;
13048;SDS011;6591;51.446;5.404;2023-04-15T07:36:47;8.60;;;6.60;;
13048;SDS011;6591;51.446;5.404;2023-04-15T07:39:17;6.87;;;6.17;;
13048;SDS011;6591;51.446;5.404;2023-04-15T07:41:44;7.60;;;6.80;;
13048;SDS011;6591;51.446;5.404;2023-04-15T07:44:11;7.67;;;5.90;;
13048;SDS011;6591;51.446;5.404;2023-04-15T07:46:38;6.93;;;5.93;;
13048;SDS011;6591;51.446;5.404;2023-04-15T07:49:06;6.57;;;5.87;;
13048;SDS011;6591;51.446;5.404;2023-04-15T07:51:33;8.10;;;6.00;;
13048;SDS011;6591;51.446;5.404;2023-04-15T07:54:00;7.00;;;6.10;;
13048;SDS011;6591;51.446;5.404;2023-04-15T07:56:28;6.60;;;5.90;;
13048;SDS011;6591;51.446;5.404;2023-04-15T07:58:55;7.93;;;6.17;;
13048;SDS011;6591;51.446;5.404;2023-04-15T08:01:24;7.03;;;6.33;;
13048;SDS011;6591;51.446;5.404;2023-04-15T08:03:52;6.40;;;5.77;;
13048;SDS011;6591;51.446;5.404;2023-04-15T08:06:19;6.30;;;5.60;;
13048;SDS011;6591;51.446;5.404;2023-04-15T08:08:46;6.33;;;5.73;;
13048;SDS011;6591;51.446;5.404;2023-04-15T08:11:13;8.47;;;5.87;;
13048;SDS011;6591;51.446;5.404;2023-04-15T08:13:40;5.67;;;5.10;;
13048;SDS011;6591;51.446;5.404;2023-04-15T08:16:19;6.03;;;5.23;;
13048;SDS011;6591;51.446;5.404;2023-04-15T08:18:49;5.77;;;4.90;;
13048;SDS011;6591;51.446;5.404;2023-04-15T08:21:18;4.93;;;4.30;;
13048;SDS011;6591;51.446;5.404;2023-04-15T08:23:46;5.67;;;5.13;;
13048;SDS011;6591;51.446;5.404;2023-04-15T08:26:18;6.93;;;5.57;;
13048;SDS011;6591;51.446;5.404;2023-04-15T08:28:46;8.03;;;5.23;;
13048;SDS011;6591;51.446;5.404;2023-04-15T08:31:14;6.20;;;5.50;;
13048;SDS011;6591;51.446;5.404;2023-04-15T08:33:44;6.40;;;5.50;;
13048;SDS011;6591;51.446;5.404;2023-04-15T08:36:12;5.33;;;4.83;;
13048;SDS011;6591;51.446;5.404;2023-04-15T08:38:39;5.97;;;5.03;;
13048;SDS011;6591;51.446;5.404;2023-04-15T08:41:08;5.73;;;5.10;;
13048;SDS011;6591;51.446;5.404;2023-04-15T08:43:48;6.10;;;5.50;;
13048;SDS011;6591;51.446;5.404;2023-04-15T08:46:26;5.30;;;4.50;;
13048;SDS011;6591;51.446;5.404;2023-04-15T08:48:55;4.53;;;4.13;;
13048;SDS011;6591;51.446;5.404;2023-04-15T08:51:24;5.50;;;4.83;;
13048;SDS011;6591;51.446;5.404;2023-04-15T08:53:52;7.63;;;5.37;;
13048;SDS011;6591;51.446;5.404;2023-04-15T08:56:22;5.17;;;4.50;;
13048;SDS011;6591;51.446;5.404;2023-04-15T08:58:52;5.33;;;4.67;;
13048;SDS011;6591;51.446;5.404;2023-04-15T09:01:20;9.00;;;5.03;;
13048;SDS011;6591;51.446;5.404;2023-04-15T09:03:48;6.27;;;4.70;;
13048;SDS011;6591;51.446;5.404;2023-04-15T09:06:16;6.20;;;4.60;;
13048;SDS011;6591;51.446;5.404;2023-04-15T09:08:43;5.77;;;3.87;;
13048;SDS011;6591;51.446;5.404;2023-04-15T09:11:11;4.40;;;3.87;;
13048;SDS011;6591;51.446;5.404;2023-04-15T09:13:38;6.10;;;3.70;;
13048;SDS011;6591;51.446;5.404;2023-04-15T09:16:05;6.87;;;4.20;;
13048;SDS011;6591;51.446;5.404;2023-04-15T09:18:34;4.77;;;3.63;;
13048;SDS011;6591;51.446;5.404;2023-04-15T09:21:14;4.30;;;3.20;;
13048;SDS011;6591;51.446;5.404;2023-04-15T09:23:58;3.30;;;2.87;;
13048;SDS011;6591;51.446;5.404;2023-04-15T09:26:31;4.47;;;3.37;;
13048;SDS011;6591;51.446;5.404;2023-04-15T09:29:09;4.80;;;3.40;;
13048;SDS011;6591;51.446;5.404;2023-04-15T09:31:40;3.90;;;3.30;;
13048;SDS011;6591;51.446;5.404;2023-04-15T09:34:08;5.27;;;3.53;;
13048;SDS011;6591;51.446;5.404;2023-04-15T09:39:22;3.50;;;2.90;;
13048;SDS011;6591;51.446;5.404;2023-04-15T09:42:07;3.63;;;2.80;;
13048;SDS011;6591;51.446;5.404;2023-04-15T09:44:35;3.20;;;2.90;;
13048;SDS011;6591;51.446;5.404;2023-04-15T09:47:02;3.20;;;2.90;;
13048;SDS011;6591;51.446;5.404;2023-04-15T09:49:29;4.50;;;3.50;;
13048;SDS011;6591;51.446;5.404;2023-04-15T09:51:58;3.97;;;2.73;;
13048;SDS011;6591;51.446;5.404;2023-04-15T09:54:35;3.27;;;2.73;;
13048;SDS011;6591;51.446;5.404;2023-04-15T09:57:04;4.03;;;3.03;;
13048;SDS011;6591;51.446;5.404;2023-04-15T09:59:37;3.47;;;3.17;;
13048;SDS011;6591;51.446;5.404;2023-04-15T10:02:06;5.47;;;3.37;;
13048;SDS011;6591;51.446;5.404;2023-04-15T10:04:34;5.37;;;3.73;;
13048;SDS011;6591;51.446;5.404;2023-04-15T10:07:10;4.17;;;3.40;;
13048;SDS011;6591;51.446;5.404;2023-04-15T10:09:38;7.88;;;3.83;;
13048;SDS011;6591;51.446;5.404;2023-04-15T10:12:06;4.15;;;3.15;;
13048;SDS011;6591;51.446;5.404;2023-04-15T10:14:34;3.40;;;3.00;;
13048;SDS011;6591;51.446;5.404;2023-04-15T10:17:04;6.77;;;4.20;;
13048;SDS011;6591;51.446;5.404;2023-04-15T10:19:35;4.45;;;3.58;;
13048;SDS011;6591;51.446;5.404;2023-04-15T10:22:03;4.07;;;3.60;;
13048;SDS011;6591;51.446;5.404;2023-04-15T10:24:31;4.57;;;3.45;;
13048;SDS011;6591;51.446;5.404;2023-04-15T10:26:59;3.35;;;2.80;;
13048;SDS011;6591;51.446;5.404;2023-04-15T10:29:29;4.68;;;3.47;;
13048;SDS011;6591;51.446;5.404;2023-04-15T10:31:58;3.13;;;2.83;;
13048;SDS011;6591;51.446;5.404;2023-04-15T10:34:26;3.67;;;2.78;;
13048;SDS011;6591;51.446;5.404;2023-04-15T10:37:02;3.90;;;2.90;;
13048;SDS011;6591;51.446;5.404;2023-04-15T10:42:07;3.53;;;2.65;;
13048;SDS011;6591;51.446;5.404;2023-04-15T10:44:41;3.03;;;2.50;;
13048;SDS011;6591;51.446;5.404;2023-04-15T10:47:11;4.38;;;2.60;;
13048;SDS011;6591;51.446;5.404;2023-04-15T10:49:45;2.88;;;2.50;;
13048;SDS011;6591;51.446;5.404;2023-04-15T10:52:24;3.72;;;2.53;;
13048;SDS011;6591;51.446;5.404;2023-04-15T10:57:36;2.72;;;2.53;;
13048;SDS011;6591;51.446;5.404;2023-04-15T11:00:15;4.32;;;2.78;;
13048;SDS011;6591;51.446;5.404;2023-04-15T11:08:08;5.85;;;2.28;;
13048;SDS011;6591;51.446;5.404;2023-04-15T11:20:46;1.95;;;1.80;;
13048;SDS011;6591;51.446;5.404;2023-04-15T11:23:26;3.55;;;2.80;;
13048;SDS011;6591;51.446;5.404;2023-04-15T11:26:13;2.90;;;2.60;;
13048;SDS011;6591;51.446;5.404;2023-04-15T11:28:41;2.78;;;2.33;;
13048;SDS011;6591;51.446;5.404;2023-04-15T11:31:12;3.45;;;2.30;;
13048;SDS011;6591;51.446;5.404;2023-04-15T11:33:46;3.17;;;2.45;;
13048;SDS011;6591;51.446;5.404;2023-04-15T11:36:27;3.15;;;2.55;;
13048;SDS011;6591;51.446;5.404;2023-04-15T11:38:57;3.70;;;2.85;;
13048;SDS011;6591;51.446;5.404;2023-04-15T11:41:25;3.45;;;2.85;;
13048;SDS011;6591;51.446;5.404;2023-04-15T11:43:52;3.15;;;2.83;;
13048;SDS011;6591;51.446;5.404;2023-04-15T11:46:19;3.83;;;2.47;;
13048;SDS011;6591;51.446;5.404;2023-04-15T11:48:48;3.67;;;2.25;;
13048;SDS011;6591;51.446;5.404;2023-04-15T11:51:15;2.67;;;2.38;;
13048;SDS011;6591;51.446;5.404;2023-04-15T11:53:46;3.33;;;2.38;;
13048;SDS011;6591;51.446;5.404;2023-04-15T11:56:19;2.97;;;2.55;;
13048;SDS011;6591;51.446;5.404;2023-04-15T11:58:55;2.50;;;2.30;;
13048;SDS011;6591;51.446;5.404;2023-04-15T12:01:34;2.95;;;2.38;;
13048;SDS011;6591;51.446;5.404;2023-04-15T12:04:12;2.97;;;2.25;;
13048;SDS011;6591;51.446;5.404;2023-04-15T12:06:43;2.33;;;1.88;;
13048;SDS011;6591;51.446;5.404;2023-04-15T12:09:15;2.63;;;1.98;;
13048;SDS011;6591;51.446;5.404;2023-04-15T12:11:49;3.00;;;1.85;;
13048;SDS011;6591;51.446;5.404;2023-04-15T12:14:27;3.80;;;3.28;;
13048;SDS011;6591;51.446;5.404;2023-04-15T12:17:03;4.43;;;3.10;;
13048;SDS011;6591;51.446;5.404;2023-04-15T12:19:39;3.00;;;2.72;;
13048;SDS011;6591;51.446;5.404;2023-04-15T12:22:08;2.40;;;2.20;;
13048;SDS011;6591;51.446;5.404;2023-04-15T12:24:42;2.53;;;2.00;;
13048;SDS011;6591;51.446;5.404;2023-04-15T12:27:14;4.82;;;2.42;;
13048;SDS011;6591;51.446;5.404;2023-04-15T12:29:42;1.85;;;1.65;;
13048;SDS011;6591;51.446;5.404;2023-04-15T12:32:13;2.47;;;1.90;;
13048;SDS011;6591;51.446;5.404;2023-04-15T12:34:43;2.63;;;2.00;;
13048;SDS011;6591;51.446;5.404;2023-04-15T12:37:17;2.67;;;2.08;;
13048;SDS011;6591;51.446;5.404;2023-04-15T12:39:46;2.92;;;2.40;;
13048;SDS011;6591;51.446;5.404;2023-04-15T12:42:15;4.03;;;2.40;;
13048;SDS011;6591;51.446;5.404;2023-04-15T12:44:43;3.22;;;2.40;;
13048;SDS011;6591;51.446;5.404;2023-04-15T12:47:10;2.53;;;2.00;;
13048;SDS011;6591;51.446;5.404;2023-04-15T12:49:38;2.10;;;1.90;;
13048;SDS011;6591;51.446;5.404;2023-04-15T12:52:06;3.47;;;2.17;;
13048;SDS011;6591;51.446;5.404;2023-04-15T12:54:33;2.00;;;1.77;;
13048;SDS011;6591;51.446;5.404;2023-04-15T12:57:01;2.35;;;2.13;;
13048;SDS011;6591;51.446;5.404;2023-04-15T12:59:32;2.20;;;2.00;;
13048;SDS011;6591;51.446;5.404;2023-04-15T13:02:00;3.13;;;1.90;;
13048;SDS011;6591;51.446;5.404;2023-04-15T13:04:28;1.75;;;1.58;;
13048;SDS011;6591;51.446;5.404;2023-04-15T13:06:56;2.72;;;2.30;;
13048;SDS011;6591;51.446;5.404;2023-04-15T13:09:23;2.42;;;2.10;;
13048;SDS011;6591;51.446;5.404;2023-04-15T13:11:51;4.75;;;2.33;;
13048;SDS011;6591;51.446;5.404;2023-04-15T13:14:18;2.22;;;2.03;;
13048;SDS011;6591;51.446;5.404;2023-04-15T13:16:45;2.33;;;2.13;;
13048;SDS011;6591;51.446;5.404;2023-04-15T13:19:13;3.38;;;2.03;;
13048;SDS011;6591;51.446;5.404;2023-04-15T13:21:40;2.95;;;1.85;;
13048;SDS011;6591;51.446;5.404;2023-04-15T13:24:07;3.20;;;2.22;;
13048;SDS011;6591;51.446;5.404;2023-04-15T13:26:35;2.05;;;1.80;;
13048;SDS011;6591;51.446;5.404;2023-04-15T13:29:03;2.90;;;1.65;;
13048;SDS011;6591;51.446;5.404;2023-04-15T13:31:30;2.67;;;1.80;;
13048;SDS011;6591;51.446;5.404;2023-04-15T13:33:57;2.10;;;1.63;;
13048;SDS011;6591;51.446;5.404;2023-04-15T13:36:24;2.33;;;1.67;;
13048;SDS011;6591;51.446;5.404;2023-04-15T13:38:52;3.35;;;1.70;;
13048;SDS011;6591;51.446;5.404;2023-04-15T13:41:19;2.50;;;1.73;;
13048;SDS011;6591;51.446;5.404;2023-04-15T13:43:47;1.70;;;1.60;;
13048;SDS011;6591;51.446;5.404;2023-04-15T13:46:14;2.60;;;1.83;;
13048;SDS011;6591;51.446;5.404;2023-04-15T13:48:41;1.60;;;1.50;;
13048;SDS011;6591;51.446;5.404;2023-04-15T13:51:08;2.75;;;1.55;;
13048;SDS011;6591;51.446;5.404;2023-04-15T13:53:35;2.05;;;1.77;;
13048;SDS011;6591;51.446;5.404;2023-04-15T13:56:07;2.10;;;1.90;;
13048;SDS011;6591;51.446;5.404;2023-04-15T13:58:36;2.33;;;1.88;;
13048;SDS011;6591;51.446;5.404;2023-04-15T14:01:04;1.83;;;1.60;;
13048;SDS011;6591;51.446;5.404;2023-04-15T14:03:35;2.35;;;1.70;;
13048;SDS011;6591;51.446;5.404;2023-04-15T14:06:03;2.38;;;1.52;;
13048;SDS011;6591;51.446;5.404;2023-04-15T14:08:31;2.83;;;1.50;;
13048;SDS011;6591;51.446;5.404;2023-04-15T14:10:58;3.00;;;2.05;;
13048;SDS011;6591;51.446;5.404;2023-04-15T14:13:26;1.73;;;1.50;;
13048;SDS011;6591;51.446;5.404;2023-04-15T14:15:53;1.65;;;1.40;;
13048;SDS011;6591;51.446;5.404;2023-04-15T14:18:20;4.20;;;1.67;;
13048;SDS011;6591;51.446;5.404;2023-04-15T14:20:47;4.35;;;1.90;;
13048;SDS011;6591;51.446;5.404;2023-04-15T14:23:14;2.47;;;1.40;;
13048;SDS011;6591;51.446;5.404;2023-04-15T14:25:41;3.40;;;1.67;;
13048;SDS011;6591;51.446;5.404;2023-04-15T14:28:12;1.60;;;1.40;;
13048;SDS011;6591;51.446;5.404;2023-04-15T14:30:39;1.58;;;1.30;;
13048;SDS011;6591;51.446;5.404;2023-04-15T14:33:06;2.78;;;1.42;;
13048;SDS011;6591;51.446;5.404;2023-04-15T14:35:33;3.20;;;1.20;;
13048;SDS011;6591;51.446;5.404;2023-04-15T14:38:00;2.13;;;1.50;;
13048;SDS011;6591;51.446;5.404;2023-04-15T14:40:27;2.03;;;1.50;;
13048;SDS011;6591;51.446;5.404;2023-04-15T14:42:54;2.08;;;1.23;;
13048;SDS011;6591;51.446;5.404;2023-04-15T14:45:21;1.83;;;1.13;;
13048;SDS011;6591;51.446;5.404;2023-04-15T14:47:48;2.47;;;1.52;;
13048;SDS011;6591;51.446;5.404;2023-04-15T14:50:15;2.05;;;1.27;;
13048;SDS011;6591;51.446;5.404;2023-04-15T14:52:43;2.30;;;0.98;;
13048;SDS011;6591;51.446;5.404;2023-04-15T14:55:11;4.35;;;1.20;;
13048;SDS011;6591;51.446;5.404;2023-04-15T14:57:39;1.40;;;1.30;;
13048;SDS011;6591;51.446;5.404;2023-04-15T15:00:08;2.78;;;1.38;;
13048;SDS011;6591;51.446;5.404;2023-04-15T15:02:41;2.90;;;1.20;;
13048;SDS011;6591;51.446;5.404;2023-04-15T15:05:09;3.17;;;1.23;;
13048;SDS011;6591;51.446;5.404;2023-04-15T15:07:37;2.33;;;1.20;;
13048;SDS011;6591;51.446;5.404;2023-04-15T15:10:06;2.42;;;1.30;;
13048;SDS011;6591;51.446;5.404;2023-04-15T15:12:33;1.63;;;1.20;;
13048;SDS011;6591;51.446;5.404;2023-04-15T15:15:01;2.38;;;1.15;;
13048;SDS011;6591;51.446;5.404;2023-04-15T15:17:46;2.88;;;1.45;;
13048;SDS011;6591;51.446;5.404;2023-04-15T15:20:14;2.30;;;1.20;;
13048;SDS011;6591;51.446;5.404;2023-04-15T15:22:42;2.50;;;1.50;;
13048;SDS011;6591;51.446;5.404;2023-04-15T15:25:09;1.40;;;1.27;;
13048;SDS011;6591;51.446;5.404;2023-04-15T15:27:36;2.63;;;1.40;;
13048;SDS011;6591;51.446;5.404;2023-04-15T15:30:03;2.60;;;1.17;;
13048;SDS011;6591;51.446;5.404;2023-04-15T15:32:32;2.83;;;1.00;;